sensor_id;sensor_type;location;lat;lon;timestamp;pressure;altitude;pressure_sealevel;temperature;humidity
47104;BME280;32853;52.164;5.400;2023-06-14T00:00:39;101478.84;;;21.63;46.16
47104;BME280;32853;52.164;5.400;2023-06-14T00:03:07;101483.94;;;21.31;46.54
47104;BME280;32853;52.164;5.400;2023-06-14T00:05:37;101485.59;;;21.56;46.35
47104;BME280;32853;52.164;5.400;2023-06-14T00:08:11;101493.19;;;21.49;46.06
47104;BME280;32853;52.164;5.400;2023-06-14T00:10:37;101480.22;;;21.44;46.45
47104;BME280;32853;52.164;5.400;2023-06-14T00:13:03;101499.06;;;21.65;45.94
47104;BME280;32853;52.164;5.400;2023-06-14T00:15:30;101476.97;;;21.41;46.37
47104;BME280;32853;52.164;5.400;2023-06-14T00:17:57;101438.41;;;21.23;46.37
47104;BME280;32853;52.164;5.400;2023-06-14T00:20:26;101492.34;;;21.49;46.25
47104;BME280;32853;52.164;5.400;2023-06-14T00:22:52;101422.09;;;21.03;46.53
47104;BME280;32853;52.164;5.400;2023-06-14T00:25:17;101478.19;;;21.24;46.45
47104;BME280;32853;52.164;5.400;2023-06-14T00:27:42;101499.94;;;21.42;46.34
47104;BME280;32853;52.164;5.400;2023-06-14T00:30:08;101498.94;;;21.32;46.35
47104;BME280;32853;52.164;5.400;2023-06-14T00:32:34;101481.91;;;21.22;46.02
47104;BME280;32853;52.164;5.400;2023-06-14T00:35:01;101487.34;;;21.20;46.67
47104;BME280;32853;52.164;5.400;2023-06-14T00:37:26;101475.09;;;21.06;46.42
47104;BME280;32853;52.164;5.400;2023-06-14T00:39:51;101461.44;;;21.11;46.20
47104;BME280;32853;52.164;5.400;2023-06-14T00:42:24;101492.13;;;21.28;46.24
47104;BME280;32853;52.164;5.400;2023-06-14T00:44:50;101444.16;;;20.93;46.11
47104;BME280;32853;52.164;5.400;2023-06-14T00:47:15;101467.59;;;21.11;45.99
47104;BME280;32853;52.164;5.400;2023-06-14T00:49:49;101446.28;;;21.00;45.83
47104;BME280;32853;52.164;5.400;2023-06-14T00:52:22;101469.41;;;21.11;45.89
47104;BME280;32853;52.164;5.400;2023-06-14T00:54:49;101447.69;;;20.93;46.00
47104;BME280;32853;52.164;5.400;2023-06-14T00:57:14;101496.91;;;21.23;46.19
47104;BME280;32853;52.164;5.400;2023-06-14T00:59:48;101437.56;;;20.74;46.26
47104;BME280;32853;52.164;5.400;2023-06-14T01:02:14;101493.97;;;21.14;46.55
47104;BME280;32853;52.164;5.400;2023-06-14T01:04:45;101484.41;;;21.12;46.33
47104;BME280;32853;52.164;5.400;2023-06-14T01:07:20;101501.03;;;21.03;46.40
47104;BME280;32853;52.164;5.400;2023-06-14T01:15:20;101484.06;;;20.93;46.43
47104;BME280;32853;52.164;5.400;2023-06-14T01:17:49;101478.53;;;20.96;46.32
47104;BME280;32853;52.164;5.400;2023-06-14T01:20:17;101481.13;;;21.08;46.26
47104;BME280;32853;52.164;5.400;2023-06-14T01:22:53;101446.50;;;20.60;46.56
47104;BME280;32853;52.164;5.400;2023-06-14T01:25:22;101490.56;;;20.88;46.54
47104;BME280;32853;52.164;5.400;2023-06-14T01:28:04;101484.50;;;20.63;46.89
47104;BME280;32853;52.164;5.400;2023-06-14T01:30:37;101494.97;;;20.77;47.27
47104;BME280;32853;52.164;5.400;2023-06-14T01:33:15;101444.63;;;20.50;47.05
47104;BME280;32853;52.164;5.400;2023-06-14T01:35:47;101495.69;;;20.79;46.70
47104;BME280;32853;52.164;5.400;2023-06-14T01:38:14;101492.34;;;20.64;47.11
47104;BME280;32853;52.164;5.400;2023-06-14T01:40:40;101493.19;;;20.65;47.32
47104;BME280;32853;52.164;5.400;2023-06-14T01:43:07;101406.25;;;19.92;47.14
47104;BME280;32853;52.164;5.400;2023-06-14T01:45:34;101467.38;;;20.54;47.10
47104;BME280;32853;52.164;5.400;2023-06-14T01:48:01;101484.69;;;20.59;47.04
47104;BME280;32853;52.164;5.400;2023-06-14T01:50:30;101505.41;;;20.67;47.44
47104;BME280;32853;52.164;5.400;2023-06-14T01:52:56;101488.66;;;20.54;47.25
47104;BME280;32853;52.164;5.400;2023-06-14T01:55:21;101480.69;;;20.54;47.22
47104;BME280;32853;52.164;5.400;2023-06-14T01:57:47;101495.34;;;20.96;46.50
47104;BME280;32853;52.164;5.400;2023-06-14T02:00:14;101491.44;;;21.13;46.41
47104;BME280;32853;52.164;5.400;2023-06-14T02:02:41;101499.81;;;20.96;46.62
47104;BME280;32853;52.164;5.400;2023-06-14T02:05:06;101445.56;;;20.62;46.43
47104;BME280;32853;52.164;5.400;2023-06-14T02:07:32;101491.50;;;20.64;47.47
47104;BME280;32853;52.164;5.400;2023-06-14T02:09:58;101489.06;;;20.35;47.59
47104;BME280;32853;52.164;5.400;2023-06-14T02:12:24;101441.19;;;20.11;47.83
47104;BME280;32853;52.164;5.400;2023-06-14T02:14:49;101410.94;;;19.76;48.12
47104;BME280;32853;52.164;5.400;2023-06-14T02:17:15;101485.75;;;20.57;47.27
47104;BME280;32853;52.164;5.400;2023-06-14T02:19:41;101484.56;;;20.61;46.97
47104;BME280;32853;52.164;5.400;2023-06-14T02:22:07;101480.22;;;20.60;47.11
47104;BME280;32853;52.164;5.400;2023-06-14T02:24:32;101501.88;;;20.79;47.24
47104;BME280;32853;52.164;5.400;2023-06-14T02:26:58;101495.69;;;20.79;47.37
47104;BME280;32853;52.164;5.400;2023-06-14T02:29:23;101503.25;;;20.72;47.09
47104;BME280;32853;52.164;5.400;2023-06-14T02:31:48;101446.91;;;20.43;47.29
47104;BME280;32853;52.164;5.400;2023-06-14T02:34:14;101500.16;;;20.78;47.09
47104;BME280;32853;52.164;5.400;2023-06-14T02:36:42;101497.94;;;20.72;47.28
47104;BME280;32853;52.164;5.400;2023-06-14T02:39:11;101503.56;;;20.80;46.64
47104;BME280;32853;52.164;5.400;2023-06-14T02:41:37;101510.72;;;20.67;47.37
47104;BME280;32853;52.164;5.400;2023-06-14T02:44:03;101490.97;;;20.58;47.22
47104;BME280;32853;52.164;5.400;2023-06-14T02:46:29;101496.31;;;20.46;47.59
47104;BME280;32853;52.164;5.400;2023-06-14T02:48:54;101501.59;;;20.58;47.52
47104;BME280;32853;52.164;5.400;2023-06-14T02:51:19;101498.28;;;20.68;47.30
47104;BME280;32853;52.164;5.400;2023-06-14T02:53:45;101505.09;;;20.59;47.84
47104;BME280;32853;52.164;5.400;2023-06-14T02:56:10;101479.81;;;20.53;47.29
47104;BME280;32853;52.164;5.400;2023-06-14T02:58:37;101515.09;;;20.55;47.92
47104;BME280;32853;52.164;5.400;2023-06-14T03:01:04;101494.06;;;20.52;47.61
47104;BME280;32853;52.164;5.400;2023-06-14T03:03:30;101512.53;;;20.67;47.66
47104;BME280;32853;52.164;5.400;2023-06-14T03:05:56;101473.34;;;20.45;47.54
47104;BME280;32853;52.164;5.400;2023-06-14T03:08:21;101427.78;;;20.13;47.87
47104;BME280;32853;52.164;5.400;2023-06-14T03:10:51;101454.31;;;20.25;47.92
47104;BME280;32853;52.164;5.400;2023-06-14T03:13:17;101529.31;;;20.80;47.44
47104;BME280;32853;52.164;5.400;2023-06-14T03:15:42;101523.69;;;20.72;47.69
47104;BME280;32853;52.164;5.400;2023-06-14T03:18:08;101528.06;;;20.60;47.43
47104;BME280;32853;52.164;5.400;2023-06-14T03:20:37;101482.47;;;20.28;48.13
47104;BME280;32853;52.164;5.400;2023-06-14T03:23:03;101480.25;;;20.22;48.15
47104;BME280;32853;52.164;5.400;2023-06-14T03:25:29;101480.66;;;20.28;48.04
47104;BME280;32853;52.164;5.400;2023-06-14T03:27:55;101479.06;;;20.26;48.12
47104;BME280;32853;52.164;5.400;2023-06-14T03:30:21;101530.22;;;20.55;48.67
47104;BME280;32853;52.164;5.400;2023-06-14T03:32:46;101530.50;;;20.50;48.29
47104;BME280;32853;52.164;5.400;2023-06-14T03:35:11;101508.09;;;20.29;48.15
47104;BME280;32853;52.164;5.400;2023-06-14T03:40:42;101541.03;;;20.14;49.04
47104;BME280;32853;52.164;5.400;2023-06-14T03:43:12;101535.41;;;20.18;49.32
47104;BME280;32853;52.164;5.400;2023-06-14T03:45:44;101199.53;;;18.22;48.93
47104;BME280;32853;52.164;5.400;2023-06-14T03:48:09;101459.25;;;19.41;49.41
47104;BME280;32853;52.164;5.400;2023-06-14T03:50:35;101543.88;;;19.98;49.76
47104;BME280;32853;52.164;5.400;2023-06-14T03:53:06;101539.91;;;19.78;50.03
47104;BME280;32853;52.164;5.400;2023-06-14T03:55:34;101457.44;;;19.29;49.98
47104;BME280;32853;52.164;5.400;2023-06-14T03:58:00;101268.56;;;18.19;50.00
47104;BME280;32853;52.164;5.400;2023-06-14T04:00:28;101244.66;;;18.06;49.65
47104;BME280;32853;52.164;5.400;2023-06-14T04:02:54;101363.16;;;18.71;50.21
47104;BME280;32853;52.164;5.400;2023-06-14T04:05:24;101553.19;;;19.78;50.30
47104;BME280;32853;52.164;5.400;2023-06-14T04:07:55;101553.63;;;19.85;50.46
47104;BME280;32853;52.164;5.400;2023-06-14T04:10:23;101495.63;;;19.39;50.21
47104;BME280;32853;52.164;5.400;2023-06-14T04:12:52;101500.56;;;19.18;50.75
47104;BME280;32853;52.164;5.400;2023-06-14T04:15:19;101549.59;;;19.52;50.94
47104;BME280;32853;52.164;5.400;2023-06-14T04:17:47;101594.66;;;19.66;50.90
47104;BME280;32853;52.164;5.400;2023-06-14T04:20:22;101576.88;;;19.81;50.79
47104;BME280;32853;52.164;5.400;2023-06-14T04:22:53;101578.66;;;19.81;51.02
47104;BME280;32853;52.164;5.400;2023-06-14T04:25:19;101251.91;;;17.90;50.97
47104;BME280;32853;52.164;5.400;2023-06-14T04:27:48;101581.25;;;19.95;51.05
47104;BME280;32853;52.164;5.400;2023-06-14T04:30:15;101471.81;;;19.25;50.86
47104;BME280;32853;52.164;5.400;2023-06-14T04:32:40;101580.44;;;19.67;51.18
47104;BME280;32853;52.164;5.400;2023-06-14T04:35:08;101381.78;;;18.42;51.84
47104;BME280;32853;52.164;5.400;2023-06-14T04:37:33;101596.97;;;19.58;51.85
47104;BME280;32853;52.164;5.400;2023-06-14T04:40:00;101580.75;;;19.49;52.18
47104;BME280;32853;52.164;5.400;2023-06-14T04:42:30;101588.16;;;19.58;52.12
47104;BME280;32853;52.164;5.400;2023-06-14T04:44:58;101537.75;;;19.16;52.70
47104;BME280;32853;52.164;5.400;2023-06-14T04:47:24;101470.69;;;18.75;52.56
47104;BME280;32853;52.164;5.400;2023-06-14T04:49:58;101381.63;;;18.03;52.70
47104;BME280;32853;52.164;5.400;2023-06-14T04:52:32;101392.09;;;18.33;52.60
47104;BME280;32853;52.164;5.400;2023-06-14T04:55:01;101554.13;;;19.23;52.66
47104;BME280;32853;52.164;5.400;2023-06-14T04:57:33;101538.22;;;19.23;52.99
47104;BME280;32853;52.164;5.400;2023-06-14T04:59:58;101592.63;;;19.43;52.89
47104;BME280;32853;52.164;5.400;2023-06-14T05:02:27;101267.13;;;17.29;53.29
47104;BME280;32853;52.164;5.400;2023-06-14T05:04:53;101369.91;;;17.92;53.54
47104;BME280;32853;52.164;5.400;2023-06-14T05:07:33;101606.00;;;19.41;53.54
47104;BME280;32853;52.164;5.400;2023-06-14T05:10:12;101611.81;;;19.61;53.11
47104;BME280;32853;52.164;5.400;2023-06-14T05:12:39;101529.75;;;19.04;53.17
47104;BME280;32853;52.164;5.400;2023-06-14T05:15:04;101564.75;;;19.23;54.06
47104;BME280;32853;52.164;5.400;2023-06-14T05:17:39;101633.44;;;19.55;53.46
47104;BME280;32853;52.164;5.400;2023-06-14T05:20:18;101582.03;;;19.70;53.05
47104;BME280;32853;52.164;5.400;2023-06-14T05:23:13;101601.59;;;19.82;53.29
47104;BME280;32853;52.164;5.400;2023-06-14T05:25:42;101410.25;;;18.39;53.53
47104;BME280;32853;52.164;5.400;2023-06-14T05:28:20;101506.88;;;18.89;53.93
47104;BME280;32853;52.164;5.400;2023-06-14T05:34:16;101615.56;;;19.44;54.53
47104;BME280;32853;52.164;5.400;2023-06-14T05:43:25;101623.84;;;20.06;53.93
47104;BME280;32853;52.164;5.400;2023-06-14T05:48:55;101416.72;;;18.62;53.34
47104;BME280;32853;52.164;5.400;2023-06-14T05:51:21;101523.25;;;19.49;52.74
47104;BME280;32853;52.164;5.400;2023-06-14T05:53:48;101522.50;;;19.47;52.80
47104;BME280;32853;52.164;5.400;2023-06-14T05:56:14;101435.72;;;19.09;52.78
47104;BME280;32853;52.164;5.400;2023-06-14T05:58:40;101627.53;;;20.30;52.84
47104;BME280;32853;52.164;5.400;2023-06-14T06:01:06;101373.03;;;18.96;52.36
47104;BME280;32853;52.164;5.400;2023-06-14T06:03:31;101384.06;;;19.02;52.25
47104;BME280;32853;52.164;5.400;2023-06-14T06:05:57;101568.97;;;20.32;52.37
47104;BME280;32853;52.164;5.400;2023-06-14T06:08:23;101640.13;;;20.67;51.45
47104;BME280;32853;52.164;5.400;2023-06-14T06:10:49;101600.47;;;20.51;51.31
47104;BME280;32853;52.164;5.400;2023-06-14T06:13:15;101592.66;;;20.35;50.79
47104;BME280;32853;52.164;5.400;2023-06-14T06:15:41;101641.47;;;20.72;50.71
47104;BME280;32853;52.164;5.400;2023-06-14T06:18:06;101305.75;;;18.84;50.75
47104;BME280;32853;52.164;5.400;2023-06-14T06:20:31;101564.72;;;20.68;50.38
47104;BME280;32853;52.164;5.400;2023-06-14T06:22:58;101461.22;;;20.15;50.16
47104;BME280;32853;52.164;5.400;2023-06-14T06:25:24;101633.72;;;21.07;49.90
47104;BME280;32853;52.164;5.400;2023-06-14T06:27:51;101587.66;;;21.07;48.97
47104;BME280;32853;52.164;5.400;2023-06-14T06:30:17;101652.38;;;21.44;48.95
47104;BME280;32853;52.164;5.400;2023-06-14T06:32:48;101588.50;;;21.07;49.00
47104;BME280;32853;52.164;5.400;2023-06-14T06:35:13;101643.41;;;21.45;48.23
47104;BME280;32853;52.164;5.400;2023-06-14T06:37:40;101560.88;;;20.84;48.62
47104;BME280;32853;52.164;5.400;2023-06-14T06:40:06;101659.28;;;21.46;49.24
47104;BME280;32853;52.164;5.400;2023-06-14T06:42:32;101549.28;;;21.22;48.25
47104;BME280;32853;52.164;5.400;2023-06-14T06:44:58;101631.13;;;21.79;48.04
47104;BME280;32853;52.164;5.400;2023-06-14T06:47:23;101642.44;;;21.94;47.82
47104;BME280;32853;52.164;5.400;2023-06-14T06:49:53;101567.03;;;21.58;47.66
47104;BME280;32853;52.164;5.400;2023-06-14T06:52:18;101630.13;;;22.04;47.38
47104;BME280;32853;52.164;5.400;2023-06-14T06:54:44;101503.06;;;21.36;47.02
47104;BME280;32853;52.164;5.400;2023-06-14T06:57:11;101660.56;;;22.37;46.94
47104;BME280;32853;52.164;5.400;2023-06-14T06:59:37;101561.94;;;21.90;47.39
47104;BME280;32853;52.164;5.400;2023-06-14T07:02:03;101668.72;;;22.69;46.23
47104;BME280;32853;52.164;5.400;2023-06-14T07:04:37;101670.97;;;22.86;46.09
47104;BME280;32853;52.164;5.400;2023-06-14T07:07:05;101646.25;;;22.38;46.41
47104;BME280;32853;52.164;5.400;2023-06-14T07:09:33;101671.91;;;22.74;46.36
47104;BME280;32853;52.164;5.400;2023-06-14T07:11:59;101572.00;;;22.55;46.28
47104;BME280;32853;52.164;5.400;2023-06-14T07:14:24;101667.34;;;22.98;45.38
47104;BME280;32853;52.164;5.400;2023-06-14T07:16:49;101604.28;;;22.86;45.24
47104;BME280;32853;52.164;5.400;2023-06-14T07:19:15;101596.28;;;22.86;45.89
47104;BME280;32853;52.164;5.400;2023-06-14T07:21:41;101658.06;;;23.47;44.58
47104;BME280;32853;52.164;5.400;2023-06-14T07:24:09;101682.50;;;23.31;44.46
47104;BME280;32853;52.164;5.400;2023-06-14T07:26:37;101623.00;;;23.52;44.28
47104;BME280;32853;52.164;5.400;2023-06-14T07:29:02;101636.69;;;23.47;43.31
47104;BME280;32853;52.164;5.400;2023-06-14T07:31:29;101613.28;;;23.62;43.04
47104;BME280;32853;52.164;5.400;2023-06-14T07:34:10;101526.88;;;23.19;42.20
47104;BME280;32853;52.164;5.400;2023-06-14T07:36:35;101498.06;;;22.91;42.23
47104;BME280;32853;52.164;5.400;2023-06-14T07:39:02;101669.34;;;23.73;42.39
47104;BME280;32853;52.164;5.400;2023-06-14T07:41:28;101629.41;;;23.92;41.64
47104;BME280;32853;52.164;5.400;2023-06-14T07:43:54;101630.78;;;23.43;42.06
47104;BME280;32853;52.164;5.400;2023-06-14T07:46:20;101706.44;;;24.30;42.07
47104;BME280;32853;52.164;5.400;2023-06-14T07:48:45;101629.00;;;23.76;41.57
47104;BME280;32853;52.164;5.400;2023-06-14T07:51:11;101365.88;;;22.66;41.74
47104;BME280;32853;52.164;5.400;2023-06-14T07:53:36;101615.75;;;24.07;41.29
47104;BME280;32853;52.164;5.400;2023-06-14T07:56:02;101699.81;;;24.97;40.85
47104;BME280;32853;52.164;5.400;2023-06-14T07:58:32;101455.13;;;23.58;40.98
47104;BME280;32853;52.164;5.400;2023-06-14T08:01:04;101476.00;;;23.53;40.39
47104;BME280;32853;52.164;5.400;2023-06-14T08:03:33;101449.72;;;23.16;40.34
47104;BME280;32853;52.164;5.400;2023-06-14T08:06:11;101679.91;;;24.90;40.21
47104;BME280;32853;52.164;5.400;2023-06-14T08:08:45;101559.50;;;24.29;39.13
47104;BME280;32853;52.164;5.400;2023-06-14T08:11:24;101641.31;;;24.92;39.08
47104;BME280;32853;52.164;5.400;2023-06-14T08:21:28;101700.25;;;25.33;38.15
47104;BME280;32853;52.164;5.400;2023-06-14T08:28:25;101532.13;;;24.77;38.20
47104;BME280;32853;52.164;5.400;2023-06-14T08:30:50;101611.88;;;25.23;38.88
47104;BME280;32853;52.164;5.400;2023-06-14T08:33:16;101699.13;;;25.75;37.55
47104;BME280;32853;52.164;5.400;2023-06-14T08:35:41;101698.03;;;26.07;37.58
47104;BME280;32853;52.164;5.400;2023-06-14T08:38:07;101528.59;;;25.16;36.56
47104;BME280;32853;52.164;5.400;2023-06-14T08:40:36;101707.19;;;26.14;36.87
47104;BME280;32853;52.164;5.400;2023-06-14T08:43:02;101708.31;;;26.02;36.99
47104;BME280;32853;52.164;5.400;2023-06-14T08:45:27;101556.53;;;25.43;36.87
47104;BME280;32853;52.164;5.400;2023-06-14T08:47:59;101688.41;;;26.53;36.95
47104;BME280;32853;52.164;5.400;2023-06-14T08:50:41;101565.00;;;25.87;36.80
47104;BME280;32853;52.164;5.400;2023-06-14T08:53:07;101545.09;;;24.81;36.33
47104;BME280;32853;52.164;5.400;2023-06-14T08:55:38;101725.13;;;26.62;36.55
47104;BME280;32853;52.164;5.400;2023-06-14T08:58:05;101397.53;;;24.67;35.36
47104;BME280;32853;52.164;5.400;2023-06-14T09:00:30;101710.88;;;26.61;35.00
47104;BME280;32853;52.164;5.400;2023-06-14T09:02:58;101711.72;;;26.62;35.19
47104;BME280;32853;52.164;5.400;2023-06-14T09:05:24;101553.84;;;25.43;34.95
47104;BME280;32853;52.164;5.400;2023-06-14T09:07:49;101673.75;;;25.80;34.82
47104;BME280;32853;52.164;5.400;2023-06-14T09:10:15;101588.69;;;25.82;34.44
47104;BME280;32853;52.164;5.400;2023-06-14T09:12:44;101588.72;;;25.72;34.55
47104;BME280;32853;52.164;5.400;2023-06-14T09:15:10;101622.31;;;25.36;34.92
47104;BME280;32853;52.164;5.400;2023-06-14T09:17:36;101427.31;;;24.43;34.67
47104;BME280;32853;52.164;5.400;2023-06-14T09:20:10;101552.31;;;25.50;34.05
47104;BME280;32853;52.164;5.400;2023-06-14T09:22:39;101599.84;;;26.06;34.57
47104;BME280;32853;52.164;5.400;2023-06-14T09:25:05;101713.84;;;26.20;34.31
47104;BME280;32853;52.164;5.400;2023-06-14T09:27:32;101635.81;;;25.74;34.46
47104;BME280;32853;52.164;5.400;2023-06-14T09:29:57;101646.09;;;26.27;33.59
47104;BME280;32853;52.164;5.400;2023-06-14T09:32:23;101548.91;;;25.67;34.04
47104;BME280;32853;52.164;5.400;2023-06-14T09:34:49;101443.84;;;24.77;33.90
47104;BME280;32853;52.164;5.400;2023-06-14T09:37:28;101715.75;;;26.85;33.50
47104;BME280;32853;52.164;5.400;2023-06-14T09:39:54;101649.72;;;26.36;33.42
47104;BME280;32853;52.164;5.400;2023-06-14T09:42:22;101559.09;;;25.73;33.08
47104;BME280;32853;52.164;5.400;2023-06-14T09:44:53;101563.16;;;25.87;33.30
47104;BME280;32853;52.164;5.400;2023-06-14T09:47:22;101710.09;;;27.53;32.80
47104;BME280;32853;52.164;5.400;2023-06-14T09:49:48;101649.47;;;27.50;32.51
47104;BME280;32853;52.164;5.400;2023-06-14T09:52:25;101670.34;;;26.35;32.90
47104;BME280;32853;52.164;5.400;2023-06-14T09:54:52;101716.72;;;27.31;33.37
47104;BME280;32853;52.164;5.400;2023-06-14T09:57:27;101637.72;;;27.24;32.63
47104;BME280;32853;52.164;5.400;2023-06-14T09:59:57;101719.63;;;27.75;32.77
47104;BME280;32853;52.164;5.400;2023-06-14T10:02:28;101454.34;;;26.04;32.38
47104;BME280;32853;52.164;5.400;2023-06-14T10:05:07;101700.81;;;27.75;32.96
47104;BME280;32853;52.164;5.400;2023-06-14T10:07:52;101670.16;;;27.86;32.76
47104;BME280;32853;52.164;5.400;2023-06-14T10:10:39;101705.28;;;28.20;31.75
47104;BME280;32853;52.164;5.400;2023-06-14T10:13:05;101699.09;;;28.45;31.51
47104;BME280;32853;52.164;5.400;2023-06-14T10:15:46;101696.06;;;28.66;31.54
47104;BME280;32853;52.164;5.400;2023-06-14T10:24:00;101706.09;;;28.02;32.25
47104;BME280;32853;52.164;5.400;2023-06-14T10:26:28;101705.50;;;27.91;32.34
47104;BME280;32853;52.164;5.400;2023-06-14T10:29:07;101638.41;;;27.08;32.58
47104;BME280;32853;52.164;5.400;2023-06-14T10:31:55;101692.97;;;27.99;32.22
47104;BME280;32853;52.164;5.400;2023-06-14T10:34:32;101709.56;;;27.49;32.20
47104;BME280;32853;52.164;5.400;2023-06-14T10:37:02;101657.75;;;27.39;32.06
47104;BME280;32853;52.164;5.400;2023-06-14T10:39:29;101568.09;;;27.40;32.57
47104;BME280;32853;52.164;5.400;2023-06-14T10:41:56;101648.63;;;28.03;31.98
47104;BME280;32853;52.164;5.400;2023-06-14T10:46:54;101624.03;;;28.34;31.29
47104;BME280;32853;52.164;5.400;2023-06-14T10:49:36;101711.38;;;28.65;31.44
47104;BME280;32853;52.164;5.400;2023-06-14T10:52:16;101588.22;;;27.27;30.98
47104;BME280;32853;52.164;5.400;2023-06-14T11:00:15;101564.16;;;27.88;31.34
47104;BME280;32853;52.164;5.400;2023-06-14T11:06:06;101669.78;;;27.98;31.62
47104;BME280;32853;52.164;5.400;2023-06-14T11:09:11;101646.47;;;27.54;31.74
47104;BME280;32853;52.164;5.400;2023-06-14T11:11:45;101706.41;;;27.99;31.91
47104;BME280;32853;52.164;5.400;2023-06-14T11:14:15;101703.59;;;28.19;31.79
47104;BME280;32853;52.164;5.400;2023-06-14T11:16:47;101694.13;;;28.50;31.03
47104;BME280;32853;52.164;5.400;2023-06-14T11:19:18;101638.66;;;28.31;31.24
47104;BME280;32853;52.164;5.400;2023-06-14T11:21:48;101658.75;;;28.45;31.54
47104;BME280;32853;52.164;5.400;2023-06-14T11:24:16;101691.00;;;28.63;31.10
47104;BME280;32853;52.164;5.400;2023-06-14T11:26:51;101704.03;;;28.50;30.45
47104;BME280;32853;52.164;5.400;2023-06-14T11:29:21;101670.94;;;28.57;31.11
47104;BME280;32853;52.164;5.400;2023-06-14T11:31:51;101656.38;;;28.42;30.44
47104;BME280;32853;52.164;5.400;2023-06-14T11:41:32;101675.28;;;29.10;30.89
47104;BME280;32853;52.164;5.400;2023-06-14T11:44:24;101671.44;;;29.55;30.97
47104;BME280;32853;52.164;5.400;2023-06-14T11:46:52;101652.75;;;29.54;30.50
47104;BME280;32853;52.164;5.400;2023-06-14T11:49:23;101679.56;;;29.71;30.37
47104;BME280;32853;52.164;5.400;2023-06-14T11:51:48;101681.75;;;29.17;30.74
47104;BME280;32853;52.164;5.400;2023-06-14T11:54:14;101669.66;;;29.30;30.82
47104;BME280;32853;52.164;5.400;2023-06-14T11:56:40;101510.25;;;28.42;30.35
47104;BME280;32853;52.164;5.400;2023-06-14T11:59:05;101640.38;;;29.43;30.21
47104;BME280;32853;52.164;5.400;2023-06-14T12:01:31;101672.81;;;29.75;29.96
47104;BME280;32853;52.164;5.400;2023-06-14T12:04:04;101668.91;;;29.54;29.69
47104;BME280;32853;52.164;5.400;2023-06-14T12:06:30;101551.84;;;28.89;29.92
47104;BME280;32853;52.164;5.400;2023-06-14T12:09:03;101637.13;;;29.23;30.09
47104;BME280;32853;52.164;5.400;2023-06-14T12:11:33;101633.25;;;28.83;30.14
47104;BME280;32853;52.164;5.400;2023-06-14T12:13:59;101520.84;;;28.85;30.63
47104;BME280;32853;52.164;5.400;2023-06-14T12:16:30;101668.78;;;29.63;30.98
47104;BME280;32853;52.164;5.400;2023-06-14T12:19:00;101678.19;;;29.59;30.21
47104;BME280;32853;52.164;5.400;2023-06-14T12:21:31;101642.03;;;29.36;30.91
47104;BME280;32853;52.164;5.400;2023-06-14T12:23:58;101624.91;;;28.69;30.74
47104;BME280;32853;52.164;5.400;2023-06-14T12:26:24;101648.22;;;29.20;30.29
47104;BME280;32853;52.164;5.400;2023-06-14T12:28:57;101616.81;;;28.69;31.33
47104;BME280;32853;52.164;5.400;2023-06-14T12:31:23;101673.13;;;29.56;31.36
47104;BME280;32853;52.164;5.400;2023-06-14T12:33:49;101681.03;;;29.49;31.59
47104;BME280;32853;52.164;5.400;2023-06-14T12:36:30;101686.81;;;28.69;31.99
47104;BME280;32853;52.164;5.400;2023-06-14T12:38:59;101673.88;;;29.32;31.47
47104;BME280;32853;52.164;5.400;2023-06-14T12:41:26;101553.47;;;28.48;31.74
47104;BME280;32853;52.164;5.400;2023-06-14T12:43:54;101688.41;;;29.47;31.52
47104;BME280;32853;52.164;5.400;2023-06-14T12:46:24;101673.22;;;29.46;31.30
47104;BME280;32853;52.164;5.400;2023-06-14T12:48:49;101665.97;;;29.47;31.08
47104;BME280;32853;52.164;5.400;2023-06-14T12:51:15;101666.59;;;29.25;30.96
47104;BME280;32853;52.164;5.400;2023-06-14T12:53:40;101526.91;;;28.19;31.49
47104;BME280;32853;52.164;5.400;2023-06-14T12:56:10;101610.84;;;29.25;31.46
47104;BME280;32853;52.164;5.400;2023-06-14T12:58:36;101633.13;;;29.43;30.78
47104;BME280;32853;52.164;5.400;2023-06-14T13:01:01;101625.78;;;29.54;30.00
47104;BME280;32853;52.164;5.400;2023-06-14T13:03:29;101676.94;;;30.12;29.95
47104;BME280;32853;52.164;5.400;2023-06-14T13:05:54;101597.16;;;29.61;30.06
47104;BME280;32853;52.164;5.400;2023-06-14T13:08:31;101635.91;;;29.68;29.92
47104;BME280;32853;52.164;5.400;2023-06-14T13:11:13;101678.69;;;29.55;29.25
47104;BME280;32853;52.164;5.400;2023-06-14T13:13:41;101677.34;;;29.67;29.36
47104;BME280;32853;52.164;5.400;2023-06-14T13:16:07;101584.72;;;29.09;29.45
47104;BME280;32853;52.164;5.400;2023-06-14T13:18:33;101652.75;;;29.70;29.84
47104;BME280;32853;52.164;5.400;2023-06-14T13:21:01;101682.97;;;29.98;29.25
47104;BME280;32853;52.164;5.400;2023-06-14T13:23:26;101548.91;;;29.17;29.53
47104;BME280;32853;52.164;5.400;2023-06-14T13:26:01;101626.31;;;29.65;29.77
47104;BME280;32853;52.164;5.400;2023-06-14T13:28:41;101689.53;;;30.03;29.88
47104;BME280;32853;52.164;5.400;2023-06-14T13:31:12;101686.19;;;30.42;30.03
47104;BME280;32853;52.164;5.400;2023-06-14T13:33:56;101666.78;;;29.98;29.70
47104;BME280;32853;52.164;5.400;2023-06-14T13:36:22;101642.00;;;29.86;29.06
47104;BME280;32853;52.164;5.400;2023-06-14T13:38:47;101685.53;;;30.64;29.47
47104;BME280;32853;52.164;5.400;2023-06-14T13:41:17;101598.00;;;30.26;29.15
47104;BME280;32853;52.164;5.400;2023-06-14T13:43:45;101564.63;;;30.27;28.84
47104;BME280;32853;52.164;5.400;2023-06-14T13:46:15;101611.16;;;30.21;28.49
47104;BME280;32853;52.164;5.400;2023-06-14T13:48:41;101625.31;;;29.99;29.63
47104;BME280;32853;52.164;5.400;2023-06-14T13:51:07;101518.25;;;28.68;30.24
47104;BME280;32853;52.164;5.400;2023-06-14T13:53:33;101694.41;;;29.92;29.77
47104;BME280;32853;52.164;5.400;2023-06-14T13:55:58;101517.22;;;29.11;30.07